sensor_id;sensor_type;location;lat;lon;timestamp;P1;durP1;ratioP1;P2;durP2;ratioP2
13147;SDS011;6639;50.956;4.242;2023-08-06T00:00:57;3.55;;;2.10;;
13147;SDS011;6639;50.956;4.242;2023-08-06T00:03:24;3.78;;;2.00;;
13147;SDS011;6639;50.956;4.242;2023-08-06T00:05:51;2.15;;;1.85;;
13147;SDS011;6639;50.956;4.242;2023-08-06T00:08:17;3.53;;;1.83;;
13147;SDS011;6639;50.956;4.242;2023-08-06T00:10:46;2.55;;;2.35;;
13147;SDS011;6639;50.956;4.242;2023-08-06T00:13:15;3.38;;;2.80;;
13147;SDS011;6639;50.956;4.242;2023-08-06T00:15:42;3.42;;;2.28;;
13147;SDS011;6639;50.956;4.242;2023-08-06T00:18:09;2.83;;;2.20;;
13147;SDS011;6639;50.956;4.242;2023-08-06T00:20:38;3.67;;;2.55;;
13147;SDS011;6639;50.956;4.242;2023-08-06T00:23:05;3.63;;;3.05;;
13147;SDS011;6639;50.956;4.242;2023-08-06T00:25:32;3.13;;;2.83;;
13147;SDS011;6639;50.956;4.242;2023-08-06T00:27:59;3.17;;;2.88;;
13147;SDS011;6639;50.956;4.242;2023-08-06T00:30:27;3.45;;;3.00;;
13147;SDS011;6639;50.956;4.242;2023-08-06T00:32:54;3.20;;;2.90;;
13147;SDS011;6639;50.956;4.242;2023-08-06T00:35:21;4.55;;;3.30;;
13147;SDS011;6639;50.956;4.242;2023-08-06T00:37:48;4.05;;;3.72;;
13147;SDS011;6639;50.956;4.242;2023-08-06T00:40:15;4.88;;;3.70;;
13147;SDS011;6639;50.956;4.242;2023-08-06T00:42:42;5.55;;;3.78;;
13147;SDS011;6639;50.956;4.242;2023-08-06T00:45:10;5.57;;;4.10;;
13147;SDS011;6639;50.956;4.242;2023-08-06T00:47:38;4.88;;;3.80;;
13147;SDS011;6639;50.956;4.242;2023-08-06T00:50:06;3.47;;;3.25;;
13147;SDS011;6639;50.956;4.242;2023-08-06T00:52:34;4.88;;;3.60;;
13147;SDS011;6639;50.956;4.242;2023-08-06T00:55:02;4.45;;;4.05;;
13147;SDS011;6639;50.956;4.242;2023-08-06T00:57:29;6.45;;;4.28;;
13147;SDS011;6639;50.956;4.242;2023-08-06T00:59:56;5.75;;;4.50;;
13147;SDS011;6639;50.956;4.242;2023-08-06T01:02:23;6.28;;;5.18;;
13147;SDS011;6639;50.956;4.242;2023-08-06T01:04:51;6.32;;;4.60;;
13147;SDS011;6639;50.956;4.242;2023-08-06T01:07:21;7.60;;;4.60;;
13147;SDS011;6639;50.956;4.242;2023-08-06T01:09:57;5.18;;;4.47;;
13147;SDS011;6639;50.956;4.242;2023-08-06T01:12:40;6.40;;;5.03;;
13147;SDS011;6639;50.956;4.242;2023-08-06T01:15:15;8.85;;;5.20;;
13147;SDS011;6639;50.956;4.242;2023-08-06T01:17:45;5.28;;;4.78;;
13147;SDS011;6639;50.956;4.242;2023-08-06T01:20:14;8.18;;;5.22;;
13147;SDS011;6639;50.956;4.242;2023-08-06T01:22:43;8.05;;;5.10;;
13147;SDS011;6639;50.956;4.242;2023-08-06T01:25:09;7.70;;;5.60;;
13147;SDS011;6639;50.956;4.242;2023-08-06T01:27:39;5.75;;;5.22;;
13147;SDS011;6639;50.956;4.242;2023-08-06T01:30:11;7.20;;;5.43;;
13147;SDS011;6639;50.956;4.242;2023-08-06T01:32:42;8.00;;;4.90;;
13147;SDS011;6639;50.956;4.242;2023-08-06T01:35:12;6.03;;;5.28;;
13147;SDS011;6639;50.956;4.242;2023-08-06T01:37:43;5.38;;;4.97;;
13147;SDS011;6639;50.956;4.242;2023-08-06T01:40:10;5.60;;;4.88;;
13147;SDS011;6639;50.956;4.242;2023-08-06T01:42:38;6.25;;;5.65;;
13147;SDS011;6639;50.956;4.242;2023-08-06T01:45:06;6.28;;;5.70;;
13147;SDS011;6639;50.956;4.242;2023-08-06T01:47:34;5.63;;;5.13;;
13147;SDS011;6639;50.956;4.242;2023-08-06T01:50:01;5.82;;;5.22;;
13147;SDS011;6639;50.956;4.242;2023-08-06T01:52:28;5.93;;;5.32;;
13147;SDS011;6639;50.956;4.242;2023-08-06T01:54:56;7.03;;;5.10;;
13147;SDS011;6639;50.956;4.242;2023-08-06T01:57:23;5.93;;;4.88;;
13147;SDS011;6639;50.956;4.242;2023-08-06T01:59:50;5.93;;;5.32;;
13147;SDS011;6639;50.956;4.242;2023-08-06T02:02:17;6.00;;;5.50;;
13147;SDS011;6639;50.956;4.242;2023-08-06T02:04:44;7.57;;;4.78;;
13147;SDS011;6639;50.956;4.242;2023-08-06T02:07:11;13.27;;;5.28;;
13147;SDS011;6639;50.956;4.242;2023-08-06T02:09:38;5.38;;;4.13;;
13147;SDS011;6639;50.956;4.242;2023-08-06T02:12:07;4.68;;;4.18;;
13147;SDS011;6639;50.956;4.242;2023-08-06T02:14:34;5.85;;;4.30;;
13147;SDS011;6639;50.956;4.242;2023-08-06T02:17:01;4.97;;;4.47;;
13147;SDS011;6639;50.956;4.242;2023-08-06T02:19:28;6.93;;;4.03;;
13147;SDS011;6639;50.956;4.242;2023-08-06T02:21:55;5.97;;;3.88;;
13147;SDS011;6639;50.956;4.242;2023-08-06T02:24:21;5.32;;;4.20;;
13147;SDS011;6639;50.956;4.242;2023-08-06T02:26:48;4.93;;;4.22;;
13147;SDS011;6639;50.956;4.242;2023-08-06T02:29:17;5.53;;;3.80;;
13147;SDS011;6639;50.956;4.242;2023-08-06T02:31:44;5.38;;;4.03;;
13147;SDS011;6639;50.956;4.242;2023-08-06T02:34:11;5.53;;;4.07;;
13147;SDS011;6639;50.956;4.242;2023-08-06T02:36:38;5.80;;;4.28;;
13147;SDS011;6639;50.956;4.242;2023-08-06T02:39:05;5.07;;;4.68;;
13147;SDS011;6639;50.956;4.242;2023-08-06T02:41:32;5.53;;;4.90;;
13147;SDS011;6639;50.956;4.242;2023-08-06T02:43:59;7.88;;;5.80;;
13147;SDS011;6639;50.956;4.242;2023-08-06T02:46:27;9.82;;;5.25;;
13147;SDS011;6639;50.956;4.242;2023-08-06T02:48:54;8.43;;;5.53;;
13147;SDS011;6639;50.956;4.242;2023-08-06T02:51:21;10.50;;;6.70;;
13147;SDS011;6639;50.956;4.242;2023-08-06T02:53:48;10.02;;;8.13;;
13147;SDS011;6639;50.956;4.242;2023-08-06T02:56:15;9.43;;;8.23;;
13147;SDS011;6639;50.956;4.242;2023-08-06T02:58:42;9.88;;;8.98;;
13147;SDS011;6639;50.956;4.242;2023-08-06T03:01:09;10.07;;;9.07;;
13147;SDS011;6639;50.956;4.242;2023-08-06T03:03:37;9.90;;;9.00;;
13147;SDS011;6639;50.956;4.242;2023-08-06T03:06:04;10.52;;;8.75;;
13147;SDS011;6639;50.956;4.242;2023-08-06T03:08:31;11.05;;;9.73;;
13147;SDS011;6639;50.956;4.242;2023-08-06T03:10:58;13.13;;;10.15;;
13147;SDS011;6639;50.956;4.242;2023-08-06T03:13:24;13.93;;;9.52;;
13147;SDS011;6639;50.956;4.242;2023-08-06T03:15:53;9.60;;;8.60;;
13147;SDS011;6639;50.956;4.242;2023-08-06T03:18:20;9.23;;;8.27;;
13147;SDS011;6639;50.956;4.242;2023-08-06T03:20:48;6.65;;;5.80;;
13147;SDS011;6639;50.956;4.242;2023-08-06T03:23:15;5.72;;;5.13;;
13147;SDS011;6639;50.956;4.242;2023-08-06T03:25:42;4.68;;;4.28;;
13147;SDS011;6639;50.956;4.242;2023-08-06T03:28:09;4.78;;;4.28;;
13147;SDS011;6639;50.956;4.242;2023-08-06T03:30:36;4.20;;;3.80;;
13147;SDS011;6639;50.956;4.242;2023-08-06T03:33:04;3.30;;;3.10;;
13147;SDS011;6639;50.956;4.242;2023-08-06T03:35:31;3.47;;;2.67;;
13147;SDS011;6639;50.956;4.242;2023-08-06T03:37:59;2.72;;;2.25;;
13147;SDS011;6639;50.956;4.242;2023-08-06T03:40:26;1.80;;;1.70;;
13147;SDS011;6639;50.956;4.242;2023-08-06T03:42:53;2.33;;;2.13;;
13147;SDS011;6639;50.956;4.242;2023-08-06T03:45:20;1.00;;;0.98;;
13147;SDS011;6639;50.956;4.242;2023-08-06T03:47:47;0.95;;;0.95;;
13147;SDS011;6639;50.956;4.242;2023-08-06T03:50:14;1.45;;;1.35;;
13147;SDS011;6639;50.956;4.242;2023-08-06T03:52:41;1.52;;;1.42;;
13147;SDS011;6639;50.956;4.242;2023-08-06T03:55:09;1.27;;;1.27;;
13147;SDS011;6639;50.956;4.242;2023-08-06T03:57:36;2.95;;;0.90;;
13147;SDS011;6639;50.956;4.242;2023-08-06T04:00:03;0.90;;;0.90;;
13147;SDS011;6639;50.956;4.242;2023-08-06T04:02:31;1.50;;;1.00;;
13147;SDS011;6639;50.956;4.242;2023-08-06T04:04:57;0.93;;;0.93;;
13147;SDS011;6639;50.956;4.242;2023-08-06T04:07:25;1.75;;;1.00;;
13147;SDS011;6639;50.956;4.242;2023-08-06T04:09:52;2.15;;;1.10;;
13147;SDS011;6639;50.956;4.242;2023-08-06T04:12:21;1.50;;;1.10;;
13147;SDS011;6639;50.956;4.242;2023-08-06T04:14:48;2.05;;;1.23;;
13147;SDS011;6639;50.956;4.242;2023-08-06T04:17:15;1.60;;;1.50;;
13147;SDS011;6639;50.956;4.242;2023-08-06T04:19:45;1.58;;;1.48;;
13147;SDS011;6639;50.956;4.242;2023-08-06T04:22:12;2.42;;;2.10;;
13147;SDS011;6639;50.956;4.242;2023-08-06T04:24:39;3.78;;;2.17;;
13147;SDS011;6639;50.956;4.242;2023-08-06T04:27:07;3.20;;;2.20;;
13147;SDS011;6639;50.956;4.242;2023-08-06T04:29:36;3.97;;;2.25;;
13147;SDS011;6639;50.956;4.242;2023-08-06T04:32:03;3.10;;;2.50;;
13147;SDS011;6639;50.956;4.242;2023-08-06T04:34:32;2.88;;;2.65;;
13147;SDS011;6639;50.956;4.242;2023-08-06T04:36:59;3.75;;;2.90;;
13147;SDS011;6639;50.956;4.242;2023-08-06T04:39:26;3.90;;;2.80;;
13147;SDS011;6639;50.956;4.242;2023-08-06T04:41:53;4.75;;;3.00;;
13147;SDS011;6639;50.956;4.242;2023-08-06T04:44:21;2.88;;;2.67;;
13147;SDS011;6639;50.956;4.242;2023-08-06T04:46:49;6.47;;;3.45;;
13147;SDS011;6639;50.956;4.242;2023-08-06T04:49:16;4.63;;;3.20;;
13147;SDS011;6639;50.956;4.242;2023-08-06T04:51:43;5.45;;;3.70;;
13147;SDS011;6639;50.956;4.242;2023-08-06T04:54:10;3.85;;;2.83;;
13147;SDS011;6639;50.956;4.242;2023-08-06T04:56:37;4.45;;;3.33;;
13147;SDS011;6639;50.956;4.242;2023-08-06T04:59:04;4.95;;;3.38;;
13147;SDS011;6639;50.956;4.242;2023-08-06T05:01:31;5.68;;;2.78;;
13147;SDS011;6639;50.956;4.242;2023-08-06T05:03:59;3.03;;;2.83;;
13147;SDS011;6639;50.956;4.242;2023-08-06T05:06:26;5.30;;;3.30;;
13147;SDS011;6639;50.956;4.242;2023-08-06T05:08:53;5.05;;;3.17;;
13147;SDS011;6639;50.956;4.242;2023-08-06T05:11:20;6.05;;;2.92;;
13147;SDS011;6639;50.956;4.242;2023-08-06T05:13:47;5.03;;;3.40;;
13147;SDS011;6639;50.956;4.242;2023-08-06T05:16:13;5.53;;;3.25;;
13147;SDS011;6639;50.956;4.242;2023-08-06T05:18:40;3.72;;;3.15;;
13147;SDS011;6639;50.956;4.242;2023-08-06T05:21:09;4.03;;;3.50;;
13147;SDS011;6639;50.956;4.242;2023-08-06T05:23:36;6.28;;;3.45;;
13147;SDS011;6639;50.956;4.242;2023-08-06T05:26:02;6.68;;;3.88;;
13147;SDS011;6639;50.956;4.242;2023-08-06T05:28:29;6.65;;;3.22;;
13147;SDS011;6639;50.956;4.242;2023-08-06T05:30:56;4.95;;;3.10;;
13147;SDS011;6639;50.956;4.242;2023-08-06T05:33:23;8.07;;;2.85;;
13147;SDS011;6639;50.956;4.242;2023-08-06T05:35:50;6.20;;;2.70;;
13147;SDS011;6639;50.956;4.242;2023-08-06T05:38:19;4.85;;;3.17;;
13147;SDS011;6639;50.956;4.242;2023-08-06T05:40:45;3.03;;;2.70;;
13147;SDS011;6639;50.956;4.242;2023-08-06T05:43:13;5.35;;;2.75;;
13147;SDS011;6639;50.956;4.242;2023-08-06T05:45:43;5.20;;;3.20;;
13147;SDS011;6639;50.956;4.242;2023-08-06T05:48:11;8.93;;;3.50;;
13147;SDS011;6639;50.956;4.242;2023-08-06T05:50:37;5.82;;;3.22;;
13147;SDS011;6639;50.956;4.242;2023-08-06T05:53:04;4.75;;;2.63;;
13147;SDS011;6639;50.956;4.242;2023-08-06T05:55:33;4.97;;;2.78;;
13147;SDS011;6639;50.956;4.242;2023-08-06T05:58:00;8.52;;;3.28;;
13147;SDS011;6639;50.956;4.242;2023-08-06T06:00:27;4.82;;;2.83;;
13147;SDS011;6639;50.956;4.242;2023-08-06T06:02:54;4.93;;;2.80;;
13147;SDS011;6639;50.956;4.242;2023-08-06T06:05:21;6.15;;;3.17;;
13147;SDS011;6639;50.956;4.242;2023-08-06T06:07:48;3.47;;;2.80;;
13147;SDS011;6639;50.956;4.242;2023-08-06T06:10:15;4.72;;;3.30;;
13147;SDS011;6639;50.956;4.242;2023-08-06T06:12:43;4.97;;;2.80;;
13147;SDS011;6639;50.956;4.242;2023-08-06T06:15:10;6.85;;;3.25;;
13147;SDS011;6639;50.956;4.242;2023-08-06T06:17:37;5.53;;;3.67;;
13147;SDS011;6639;50.956;4.242;2023-08-06T06:20:04;6.10;;;3.70;;
13147;SDS011;6639;50.956;4.242;2023-08-06T06:22:32;9.63;;;3.67;;
13147;SDS011;6639;50.956;4.242;2023-08-06T06:24:59;6.38;;;3.60;;
13147;SDS011;6639;50.956;4.242;2023-08-06T06:27:26;5.72;;;3.53;;
13147;SDS011;6639;50.956;4.242;2023-08-06T06:29:54;6.70;;;3.25;;
13147;SDS011;6639;50.956;4.242;2023-08-06T06:32:21;4.28;;;3.15;;
13147;SDS011;6639;50.956;4.242;2023-08-06T06:34:48;7.40;;;3.78;;
13147;SDS011;6639;50.956;4.242;2023-08-06T06:37:15;8.80;;;4.60;;
13147;SDS011;6639;50.956;4.242;2023-08-06T06:39:42;11.85;;;4.40;;
13147;SDS011;6639;50.956;4.242;2023-08-06T06:42:10;5.63;;;3.90;;
13147;SDS011;6639;50.956;4.242;2023-08-06T06:44:37;4.70;;;3.63;;
13147;SDS011;6639;50.956;4.242;2023-08-06T06:47:05;5.18;;;3.17;;
13147;SDS011;6639;50.956;4.242;2023-08-06T06:49:32;8.85;;;3.55;;
13147;SDS011;6639;50.956;4.242;2023-08-06T06:51:59;4.38;;;2.67;;
13147;SDS011;6639;50.956;4.242;2023-08-06T06:54:25;4.55;;;2.70;;
13147;SDS011;6639;50.956;4.242;2023-08-06T06:56:52;6.15;;;3.05;;
13147;SDS011;6639;50.956;4.242;2023-08-06T06:59:19;7.45;;;2.90;;
13147;SDS011;6639;50.956;4.242;2023-08-06T07:01:46;6.65;;;3.08;;
13147;SDS011;6639;50.956;4.242;2023-08-06T07:04:15;12.25;;;3.00;;
13147;SDS011;6639;50.956;4.242;2023-08-06T07:06:41;4.95;;;2.80;;
13147;SDS011;6639;50.956;4.242;2023-08-06T07:09:08;4.90;;;2.47;;
13147;SDS011;6639;50.956;4.242;2023-08-06T07:11:35;4.10;;;1.80;;
13147;SDS011;6639;50.956;4.242;2023-08-06T07:14:02;4.10;;;2.03;;
13147;SDS011;6639;50.956;4.242;2023-08-06T07:16:29;4.63;;;2.42;;
13147;SDS011;6639;50.956;4.242;2023-08-06T07:18:56;5.35;;;1.92;;
13147;SDS011;6639;50.956;4.242;2023-08-06T07:21:24;4.70;;;1.42;;
13147;SDS011;6639;50.956;4.242;2023-08-06T07:23:51;3.45;;;1.58;;
13147;SDS011;6639;50.956;4.242;2023-08-06T07:26:18;5.88;;;1.65;;
13147;SDS011;6639;50.956;4.242;2023-08-06T07:28:45;5.07;;;1.73;;
13147;SDS011;6639;50.956;4.242;2023-08-06T07:31:11;5.93;;;1.70;;
13147;SDS011;6639;50.956;4.242;2023-08-06T07:33:38;6.85;;;2.15;;
13147;SDS011;6639;50.956;4.242;2023-08-06T07:36:09;5.40;;;2.10;;
13147;SDS011;6639;50.956;4.242;2023-08-06T07:38:38;4.88;;;1.58;;
13147;SDS011;6639;50.956;4.242;2023-08-06T07:41:05;7.78;;;1.98;;
13147;SDS011;6639;50.956;4.242;2023-08-06T07:43:32;7.05;;;2.50;;
13147;SDS011;6639;50.956;4.242;2023-08-06T07:46:00;5.15;;;1.23;;
13147;SDS011;6639;50.956;4.242;2023-08-06T07:48:28;5.85;;;1.80;;
13147;SDS011;6639;50.956;4.242;2023-08-06T07:50:55;4.55;;;1.42;;
13147;SDS011;6639;50.956;4.242;2023-08-06T07:53:22;5.13;;;1.70;;
13147;SDS011;6639;50.956;4.242;2023-08-06T07:55:53;5.38;;;1.83;;
13147;SDS011;6639;50.956;4.242;2023-08-06T07:58:21;5.65;;;1.70;;
13147;SDS011;6639;50.956;4.242;2023-08-06T08:00:49;4.80;;;1.38;;
13147;SDS011;6639;50.956;4.242;2023-08-06T08:03:16;5.43;;;1.45;;
13147;SDS011;6639;50.956;4.242;2023-08-06T08:05:44;6.15;;;1.90;;
13147;SDS011;6639;50.956;4.242;2023-08-06T08:08:11;5.53;;;1.88;;
13147;SDS011;6639;50.956;4.242;2023-08-06T08:10:38;5.28;;;1.70;;
13147;SDS011;6639;50.956;4.242;2023-08-06T08:13:06;5.70;;;1.35;;
13147;SDS011;6639;50.956;4.242;2023-08-06T08:15:33;4.40;;;1.48;;
13147;SDS011;6639;50.956;4.242;2023-08-06T08:18:00;4.40;;;1.38;;
13147;SDS011;6639;50.956;4.242;2023-08-06T08:20:27;4.13;;;1.50;;
13147;SDS011;6639;50.956;4.242;2023-08-06T08:22:57;3.08;;;1.40;;
13147;SDS011;6639;50.956;4.242;2023-08-06T08:25:25;4.00;;;2.10;;
13147;SDS011;6639;50.956;4.242;2023-08-06T08:27:52;6.15;;;2.08;;
13147;SDS011;6639;50.956;4.242;2023-08-06T08:30:21;3.20;;;1.45;;
13147;SDS011;6639;50.956;4.242;2023-08-06T08:32:50;6.15;;;1.80;;
13147;SDS011;6639;50.956;4.242;2023-08-06T08:35:17;6.10;;;1.55;;
13147;SDS011;6639;50.956;4.242;2023-08-06T08:37:44;5.50;;;1.70;;
13147;SDS011;6639;50.956;4.242;2023-08-06T08:40:10;3.10;;;1.50;;
13147;SDS011;6639;50.956;4.242;2023-08-06T08:42:38;4.18;;;1.50;;
13147;SDS011;6639;50.956;4.242;2023-08-06T08:45:06;5.65;;;1.73;;
13147;SDS011;6639;50.956;4.242;2023-08-06T08:47:39;5.70;;;1.95;;
13147;SDS011;6639;50.956;4.242;2023-08-06T08:50:07;4.15;;;1.80;;
13147;SDS011;6639;50.956;4.242;2023-08-06T08:52:35;3.67;;;1.83;;
13147;SDS011;6639;50.956;4.242;2023-08-06T08:55:04;4.00;;;1.60;;
13147;SDS011;6639;50.956;4.242;2023-08-06T08:57:32;2.58;;;1.80;;
13147;SDS011;6639;50.956;4.242;2023-08-06T08:59:59;6.18;;;2.25;;
13147;SDS011;6639;50.956;4.242;2023-08-06T09:02:28;5.13;;;2.28;;
13147;SDS011;6639;50.956;4.242;2023-08-06T09:04:58;8.05;;;2.10;;
13147;SDS011;6639;50.956;4.242;2023-08-06T09:07:27;6.45;;;2.00;;
13147;SDS011;6639;50.956;4.242;2023-08-06T09:09:58;5.07;;;1.38;;
13147;SDS011;6639;50.956;4.242;2023-08-06T09:12:28;6.07;;;2.00;;
13147;SDS011;6639;50.956;4.242;2023-08-06T09:14:55;5.05;;;1.60;;
13147;SDS011;6639;50.956;4.242;2023-08-06T09:17:22;5.65;;;2.00;;
13147;SDS011;6639;50.956;4.242;2023-08-06T09:19:49;4.05;;;2.22;;
13147;SDS011;6639;50.956;4.242;2023-08-06T09:22:17;4.32;;;1.63;;
13147;SDS011;6639;50.956;4.242;2023-08-06T09:24:44;5.40;;;1.65;;
13147;SDS011;6639;50.956;4.242;2023-08-06T09:27:11;6.97;;;2.55;;
13147;SDS011;6639;50.956;4.242;2023-08-06T09:29:42;4.07;;;2.05;;
13147;SDS011;6639;50.956;4.242;2023-08-06T09:32:10;5.65;;;2.30;;
13147;SDS011;6639;50.956;4.242;2023-08-06T09:34:38;4.75;;;1.85;;
13147;SDS011;6639;50.956;4.242;2023-08-06T09:37:06;5.45;;;1.95;;
13147;SDS011;6639;50.956;4.242;2023-08-06T09:39:37;9.27;;;2.20;;
13147;SDS011;6639;50.956;4.242;2023-08-06T09:42:05;5.70;;;2.00;;
13147;SDS011;6639;50.956;4.242;2023-08-06T09:44:32;6.03;;;2.25;;
13147;SDS011;6639;50.956;4.242;2023-08-06T09:46:59;4.45;;;1.60;;
13147;SDS011;6639;50.956;4.242;2023-08-06T09:49:27;11.70;;;2.40;;
13147;SDS011;6639;50.956;4.242;2023-08-06T09:52:06;5.93;;;1.77;;
13147;SDS011;6639;50.956;4.242;2023-08-06T09:54:38;7.80;;;2.10;;
13147;SDS011;6639;50.956;4.242;2023-08-06T09:57:05;6.43;;;1.80;;
13147;SDS011;6639;50.956;4.242;2023-08-06T09:59:33;5.95;;;1.83;;
13147;SDS011;6639;50.956;4.242;2023-08-06T10:02:01;4.38;;;1.95;;
13147;SDS011;6639;50.956;4.242;2023-08-06T10:04:32;6.63;;;2.08;;
13147;SDS011;6639;50.956;4.242;2023-08-06T10:06:59;5.40;;;2.00;;
13147;SDS011;6639;50.956;4.242;2023-08-06T10:09:32;5.60;;;1.50;;
13147;SDS011;6639;50.956;4.242;2023-08-06T10:12:01;10.00;;;2.42;;
13147;SDS011;6639;50.956;4.242;2023-08-06T10:14:28;6.75;;;1.77;;
13147;SDS011;6639;50.956;4.242;2023-08-06T10:16:58;3.58;;;1.58;;
13147;SDS011;6639;50.956;4.242;2023-08-06T10:19:26;4.75;;;1.60;;
13147;SDS011;6639;50.956;4.242;2023-08-06T10:22:09;5.00;;;1.60;;
13147;SDS011;6639;50.956;4.242;2023-08-06T10:24:50;6.25;;;1.80;;
13147;SDS011;6639;50.956;4.242;2023-08-06T10:27:22;4.63;;;1.42;;
13147;SDS011;6639;50.956;4.242;2023-08-06T10:29:54;4.32;;;1.45;;
13147;SDS011;6639;50.956;4.242;2023-08-06T10:32:21;6.13;;;1.80;;
13147;SDS011;6639;50.956;4.242;2023-08-06T10:34:54;3.63;;;1.85;;
13147;SDS011;6639;50.956;4.242;2023-08-06T10:37:22;5.30;;;1.92;;
13147;SDS011;6639;50.956;4.242;2023-08-06T10:39:50;5.53;;;1.90;;
13147;SDS011;6639;50.956;4.242;2023-08-06T10:42:20;8.75;;;2.20;;
13147;SDS011;6639;50.956;4.242;2023-08-06T10:45:11;6.15;;;2.20;;
13147;SDS011;6639;50.956;4.242;2023-08-06T10:47:40;4.38;;;2.30;;
13147;SDS011;6639;50.956;4.242;2023-08-06T10:50:07;6.53;;;2.50;;
13147;SDS011;6639;50.956;4.242;2023-08-06T10:52:37;4.70;;;1.65;;
13147;SDS011;6639;50.956;4.242;2023-08-06T10:55:06;5.53;;;2.05;;
13147;SDS011;6639;50.956;4.242;2023-08-06T10:57:35;6.05;;;2.63;;
13147;SDS011;6639;50.956;4.242;2023-08-06T11:00:04;6.55;;;2.95;;
13147;SDS011;6639;50.956;4.242;2023-08-06T11:02:33;6.32;;;2.17;;
13147;SDS011;6639;50.956;4.242;2023-08-06T11:05:10;4.97;;;2.38;;
13147;SDS011;6639;50.956;4.242;2023-08-06T11:07:37;5.75;;;2.25;;
13147;SDS011;6639;50.956;4.242;2023-08-06T11:10:05;4.00;;;1.98;;
13147;SDS011;6639;50.956;4.242;2023-08-06T11:12:34;10.32;;;2.40;;
13147;SDS011;6639;50.956;4.242;2023-08-06T11:15:03;4.70;;;2.13;;
13147;SDS011;6639;50.956;4.242;2023-08-06T11:17:31;8.13;;;2.45;;
13147;SDS011;6639;50.956;4.242;2023-08-06T11:19:59;4.75;;;2.28;;
13147;SDS011;6639;50.956;4.242;2023-08-06T11:22:27;5.80;;;2.00;;
13147;SDS011;6639;50.956;4.242;2023-08-06T11:24:54;5.20;;;1.88;;
13147;SDS011;6639;50.956;4.242;2023-08-06T11:27:21;6.55;;;2.50;;
13147;SDS011;6639;50.956;4.242;2023-08-06T11:29:50;4.57;;;2.45;;
13147;SDS011;6639;50.956;4.242;2023-08-06T11:32:17;4.70;;;1.88;;
13147;SDS011;6639;50.956;4.242;2023-08-06T11:34:43;5.43;;;1.70;;
13147;SDS011;6639;50.956;4.242;2023-08-06T11:37:10;4.60;;;2.03;;
13147;SDS011;6639;50.956;4.242;2023-08-06T11:39:38;3.47;;;1.50;;
13147;SDS011;6639;50.956;4.242;2023-08-06T11:42:10;2.72;;;1.15;;
13147;SDS011;6639;50.956;4.242;2023-08-06T11:44:38;2.50;;;1.27;;
13147;SDS011;6639;50.956;4.242;2023-08-06T11:47:12;4.93;;;2.10;;
13147;SDS011;6639;50.956;4.242;2023-08-06T11:49:40;4.78;;;1.50;;
13147;SDS011;6639;50.956;4.242;2023-08-06T11:52:10;4.47;;;1.77;;
13147;SDS011;6639;50.956;4.242;2023-08-06T11:54:40;6.25;;;1.55;;
13147;SDS011;6639;50.956;4.242;2023-08-06T11:57:07;5.82;;;2.17;;
13147;SDS011;6639;50.956;4.242;2023-08-06T11:59:34;4.47;;;1.70;;
13147;SDS011;6639;50.956;4.242;2023-08-06T12:02:03;5.30;;;2.47;;
13147;SDS011;6639;50.956;4.242;2023-08-06T12:04:32;4.32;;;1.60;;
13147;SDS011;6639;50.956;4.242;2023-08-06T12:07:25;3.45;;;1.55;;
13147;SDS011;6639;50.956;4.242;2023-08-06T12:09:55;6.32;;;2.30;;
13147;SDS011;6639;50.956;4.242;2023-08-06T12:12:21;7.85;;;1.95;;
13147;SDS011;6639;50.956;4.242;2023-08-06T12:14:48;5.03;;;2.00;;
13147;SDS011;6639;50.956;4.242;2023-08-06T12:17:15;6.68;;;1.80;;
13147;SDS011;6639;50.956;4.242;2023-08-06T12:19:44;4.35;;;1.65;;
13147;SDS011;6639;50.956;4.242;2023-08-06T12:22:12;4.80;;;1.88;;
13147;SDS011;6639;50.956;4.242;2023-08-06T12:24:40;5.43;;;1.70;;
13147;SDS011;6639;50.956;4.242;2023-08-06T12:27:07;4.68;;;1.98;;
13147;SDS011;6639;50.956;4.242;2023-08-06T12:29:34;5.95;;;2.33;;
13147;SDS011;6639;50.956;4.242;2023-08-06T12:32:01;6.75;;;2.00;;
13147;SDS011;6639;50.956;4.242;2023-08-06T12:34:29;6.03;;;1.75;;
13147;SDS011;6639;50.956;4.242;2023-08-06T12:36:57;7.38;;;2.65;;
13147;SDS011;6639;50.956;4.242;2023-08-06T12:39:24;3.50;;;1.80;;
13147;SDS011;6639;50.956;4.242;2023-08-06T12:41:53;7.35;;;1.63;;
13147;SDS011;6639;50.956;4.242;2023-08-06T12:44:22;2.72;;;1.52;;
13147;SDS011;6639;50.956;4.242;2023-08-06T12:46:49;6.72;;;1.80;;
13147;SDS011;6639;50.956;4.242;2023-08-06T12:49:16;5.70;;;1.80;;
13147;SDS011;6639;50.956;4.242;2023-08-06T12:51:43;4.22;;;1.55;;
13147;SDS011;6639;50.956;4.242;2023-08-06T12:54:11;5.13;;;1.35;;
13147;SDS011;6639;50.956;4.242;2023-08-06T12:56:38;6.35;;;1.88;;
13147;SDS011;6639;50.956;4.242;2023-08-06T12:59:05;4.55;;;1.55;;
13147;SDS011;6639;50.956;4.242;2023-08-06T13:01:32;5.78;;;1.23;;
13147;SDS011;6639;50.956;4.242;2023-08-06T13:03:59;3.65;;;1.38;;
13147;SDS011;6639;50.956;4.242;2023-08-06T13:06:26;3.63;;;1.80;;
13147;SDS011;6639;50.956;4.242;2023-08-06T13:08:53;4.47;;;1.60;;
13147;SDS011;6639;50.956;4.242;2023-08-06T13:11:21;5.68;;;1.90;;
13147;SDS011;6639;50.956;4.242;2023-08-06T13:13:48;4.28;;;2.13;;
13147;SDS011;6639;50.956;4.242;2023-08-06T13:16:15;5.30;;;1.60;;
13147;SDS011;6639;50.956;4.242;2023-08-06T13:18:42;4.68;;;1.48;;
13147;SDS011;6639;50.956;4.242;2023-08-06T13:21:09;5.20;;;1.80;;
13147;SDS011;6639;50.956;4.242;2023-08-06T13:23:36;6.35;;;1.75;;
13147;SDS011;6639;50.956;4.242;2023-08-06T13:26:03;8.50;;;2.10;;
13147;SDS011;6639;50.956;4.242;2023-08-06T13:28:31;7.50;;;2.10;;
13147;SDS011;6639;50.956;4.242;2023-08-06T13:30:58;3.55;;;1.52;;
13147;SDS011;6639;50.956;4.242;2023-08-06T13:33:25;4.93;;;1.60;;
13147;SDS011;6639;50.956;4.242;2023-08-06T13:35:52;3.78;;;1.77;;
13147;SDS011;6639;50.956;4.242;2023-08-06T13:38:19;5.30;;;1.60;;
13147;SDS011;6639;50.956;4.242;2023-08-06T13:40:46;4.60;;;2.00;;
13147;SDS011;6639;50.956;4.242;2023-08-06T13:43:13;3.90;;;1.45;;
13147;SDS011;6639;50.956;4.242;2023-08-06T13:45:43;4.63;;;1.60;;
13147;SDS011;6639;50.956;4.242;2023-08-06T13:48:10;4.07;;;1.67;;
13147;SDS011;6639;50.956;4.242;2023-08-06T13:50:37;3.63;;;1.23;;
13147;SDS011;6639;50.956;4.242;2023-08-06T13:53:04;2.13;;;1.30;;
13147;SDS011;6639;50.956;4.242;2023-08-06T13:55:31;4.63;;;2.25;;
13147;SDS011;6639;50.956;4.242;2023-08-06T13:57:58;4.80;;;1.75;;
13147;SDS011;6639;50.956;4.242;2023-08-06T14:00:24;4.07;;;1.55;;
13147;SDS011;6639;50.956;4.242;2023-08-06T14:02:53;5.63;;;1.80;;
13147;SDS011;6639;50.956;4.242;2023-08-06T14:05:20;5.63;;;1.52;;
13147;SDS011;6639;50.956;4.242;2023-08-06T14:07:47;4.47;;;2.05;;
13147;SDS011;6639;50.956;4.242;2023-08-06T14:10:13;7.28;;;2.35;;
13147;SDS011;6639;50.956;4.242;2023-08-06T14:12:40;5.22;;;1.90;;
13147;SDS011;6639;50.956;4.242;2023-08-06T14:15:08;5.43;;;2.05;;
13147;SDS011;6639;50.956;4.242;2023-08-06T14:17:35;5.07;;;1.95;;
13147;SDS011;6639;50.956;4.242;2023-08-06T14:20:04;5.18;;;2.25;;
13147;SDS011;6639;50.956;4.242;2023-08-06T14:22:36;2.45;;;1.75;;
13147;SDS011;6639;50.956;4.242;2023-08-06T14:25:04;3.17;;;1.65;;
13147;SDS011;6639;50.956;4.242;2023-08-06T14:27:31;3.17;;;1.50;;
13147;SDS011;6639;50.956;4.242;2023-08-06T14:29:58;5.40;;;1.58;;
13147;SDS011;6639;50.956;4.242;2023-08-06T14:32:26;3.60;;;1.45;;
13147;SDS011;6639;50.956;4.242;2023-08-06T14:34:52;9.63;;;2.20;;
13147;SDS011;6639;50.956;4.242;2023-08-06T14:37:21;4.47;;;1.95;;
13147;SDS011;6639;50.956;4.242;2023-08-06T14:39:48;7.68;;;1.98;;
13147;SDS011;6639;50.956;4.242;2023-08-06T14:42:15;6.47;;;3.17;;
13147;SDS011;6639;50.956;4.242;2023-08-06T14:44:42;4.90;;;2.03;;
13147;SDS011;6639;50.956;4.242;2023-08-06T14:47:08;4.85;;;1.90;;
13147;SDS011;6639;50.956;4.242;2023-08-06T14:49:35;5.95;;;1.83;;
13147;SDS011;6639;50.956;4.242;2023-08-06T14:52:03;5.38;;;1.92;;
13147;SDS011;6639;50.956;4.242;2023-08-06T14:54:31;4.45;;;2.55;;
13147;SDS011;6639;50.956;4.242;2023-08-06T14:56:58;10.68;;;2.35;;
13147;SDS011;6639;50.956;4.242;2023-08-06T14:59:25;9.18;;;2.47;;
13147;SDS011;6639;50.956;4.242;2023-08-06T15:01:52;4.72;;;2.13;;
13147;SDS011;6639;50.956;4.242;2023-08-06T15:04:19;5.90;;;2.13;;